Relevés horaires St-Hubert (Belgique)


Relevés horaires à St-Hubert - Jeudi 26 Juill. 2018
Heure UTC1 Température [°C] Vent [km/h] Hum. [%] Pres.4 [hPa] Visi. [Km] Nébu. [octa] Préc.5 [mm] Cond.
2m. Res. Ros. Dir.2 Vit. Moy. Raf.3
23:00 24.8 24.8 12.0 ESE 7.4 7.4 11.1 45 1013.3(0.0/3h) 45 0/8 -- --
22:00 23.2 23.2 13.4 E 5.6 5.6 7.4 54 1013.7(0.4/3h) 45 0/8 -- --
21:00 24.2 24.2 13.0 E 5.6 7.4 11.1 50 1013.4(0.7/3h) 45 0/8 -- --
20:00 23.5 23.5 13.8 ENE 5.6 7.4 9.3 54 1013.6(0.5/3h) 45 0/8 -- --
19:00 23.5 23.5 14.4 ENE 5.6 7.4 11.1 57 1013.1(0.3/3h) 45 0/8 -- --
18:00 25.3 25.3 14.0 ENE 7.4 14.8 20.4 50 1012.5(0.1/3h) 30 0/8 0/12h
--
17:00 25.0 25.0 14.9 ENE 7.4 14.8 20.4 53 1012.7(-0.2/3h) 35 0/8 -- --
16:00 28.6 28.6 12.7 ESE 11.1 11.1 16.7 38 1011.8(-0.7/3h) 35 0/8 -- --
15:00 31.1 31.1 11.0 SSE 5.6 9.3 14.8 29 1011.5(-1.0/3h) 35 0/8 -- --
14:00 31.4 31.4 12.6 S 3.7 9.3 14.8 32 1011.6(-1.0/3h) 30 0/8 -- --
13:00 30.4 30.4 11.8 SSE 9.3 9.3 14.8 32 1012.2(-1.0/3h) 40 0/8 -- --
12:00 31.5 31.5 11.9 NNO 5.6 9.3 13.0 30 1012.4(-0.6/3h) 25 0/8 0/6h
--
11:00 30.6 30.6 12.6 SSE 7.4 7.4 13.0 33 1012.9(0.1/3h) 30 0/8 -- --
10:00 29.2 29.2 12.0 SE 5.6 5.6 11.1 35 1013.5(0.2/3h) 30 0/8 -- --
09:00 28.5 28.5 13.0 SSE 5.6 9.3 11.1 38 1013.7(0.4/3h) 30 0/8 -- --
08:00 26.4 26.4 13.5 ESE 7.4 9.3 11.1 45 1013.8(0.4/3h) 30 0/8 -- --
07:00 25.3 25.3 12.7 ESE 7.4 7.4 11.1 46 1014.1(0.3/3h) 35 0/8 -- --
06:00 24.1 24.1 12.3 SE 7.4 9.3 14.8 48 1014.2(-0.2/3h) 40 0/8 0/12h
--
05:00 23.0 23.0 11.4 SE 9.3 9.3 13.0 48 1014.2(0.2/3h) 45 0/8 -- --
04:00 22.4 22.4 11.5 ESE 9.3 9.3 14.8 50 1014.4(0.2/3h) 45 0/8 -- --
03:00 19.4 19.4 13.6 ENE 7.4 7.4 9.3 69 1015(-0.4/3h) 35 0/8 -- --
02:00 20.0 20.0 13.7 ENE 7.4 7.4 9.3 67 1015(-0.4/3h) 40 0/8 -- --
01:00 20.8 20.8 13.8 ENE 7.4 7.4 9.3 64 1014.9(-0.5/3h) 35 0/8 -- --
00:00 19.7 19.7 14.5 ENE 7.4 7.4 9.3 72 1015.3(-0.5/3h) 28 0/8 0/6h
0/24h
--

1 Coordinated Universal Time. Actuellement il est 13:00 locale et 11:00 UTC.

2 Le vent souffle depuis la direction indiquée vers la direction oposée.

3 Les rafales max. sont disponible 40 min après l'heure du relevé.

4 Pour les stations d'altitude (plus de 600m) le géopotentiel du niveau le plus proche de la pression obligatoire est indiqué.

5 Les stations disposant d'un diffuseur peuvent indiquer "trace". Cela signifie que des précipitations ont touchés le sol mais que la quantité est inférieure à 0.1 mm.

Récapitulatif de la journée
Température [°C] Vent [km/h] Ensoleillement4 [h] Precipitations totale5 [mm] Pression [Hpa]
Min1 Max.2 Moy.3 Max. Min Max.
18.3 31.7 8.7 20.4 0 h 0 min 0 1011.5 1015.3

1 Température minimale relevée entre 18:00 UTC la veille et 18:00 UTC le jour donné.

2 Température maximale relevée entre 06:00 UTC le jour donné et 06:00 UTC le lendemain.

3 Vent moyen de la journée basé sur les relevés horaires.

4 Ensoleillement en heures relevé entre 06:00 UTC la veille et 06:00 UTC le jour donné.

5 Précipitations totales tombées entre 06:00 UTC la jour donné et 06:00 UTC le lendemain.

Graphiques horaires